createdAt,value
2022-11-04T00:03:40.217Z,50.22
2022-11-04T00:10:04.531Z,50.13
2022-11-04T00:16:27.251Z,50.29
2022-11-04T00:22:57.666Z,50.20
2022-11-04T00:29:22.121Z,50.43
2022-11-04T00:35:46.420Z,50.42
2022-11-04T00:42:11.523Z,50.36
2022-11-04T00:48:35.937Z,50.40
2022-11-04T00:55:00.352Z,50.40
2022-11-04T01:01:25.008Z,50.44
2022-11-04T01:07:49.550Z,50.63
2022-11-04T01:14:13.786Z,50.51
2022-11-04T01:20:38.096Z,50.55
2022-11-04T01:27:02.436Z,50.62
2022-11-04T01:33:26.945Z,50.63
2022-11-04T01:39:51.246Z,50.35
2022-11-04T01:46:15.515Z,50.65
2022-11-04T01:52:39.886Z,50.71
2022-11-04T01:59:04.197Z,50.66
2022-11-04T02:05:28.524Z,50.88
2022-11-04T02:11:51.358Z,50.83
2022-11-04T02:18:33.977Z,50.88
2022-11-04T02:25:02.676Z,50.75
2022-11-04T02:31:27.051Z,50.77
2022-11-04T02:44:26.977Z,50.52
2022-11-04T02:50:57.490Z,50.42
2022-11-04T02:57:22.043Z,50.24
2022-11-04T03:03:52.590Z,49.99
2022-11-04T03:10:16.972Z,49.57
2022-11-04T03:16:41.366Z,49.49
2022-11-04T03:23:06.926Z,49.09
2022-11-04T03:29:43.230Z,49.04
2022-11-04T03:36:07.636Z,48.78
2022-11-04T03:42:44.026Z,48.51
2022-11-04T03:49:08.348Z,48.41
2022-11-04T03:55:32.629Z,48.16
2022-11-04T04:02:12.110Z,48.09
2022-11-04T04:08:35.232Z,48.12
2022-11-04T04:15:08.582Z,47.85
2022-11-04T04:21:32.918Z,47.97
2022-11-04T04:27:57.382Z,47.84
2022-11-04T04:34:21.820Z,47.70
2022-11-04T04:40:44.484Z,47.69
2022-11-04T04:47:08.844Z,47.77
2022-11-04T04:53:33.242Z,47.79
2022-11-04T04:59:57.556Z,47.45
2022-11-04T05:06:22.047Z,47.65
2022-11-04T05:12:46.377Z,47.55
2022-11-04T05:19:10.705Z,47.60
2022-11-04T05:25:35.107Z,47.78
2022-11-04T05:31:59.443Z,47.74
2022-11-04T05:38:23.915Z,47.89
2022-11-04T05:44:48.242Z,47.89
2022-11-04T05:51:12.538Z,48.03
2022-11-04T05:57:36.974Z,47.82
2022-11-04T06:04:01.265Z,47.99
2022-11-04T06:10:25.677Z,48.19
2022-11-04T06:16:50.024Z,48.14
2022-11-04T06:23:14.597Z,48.04
2022-11-04T06:29:39.030Z,48.24
2022-11-04T06:36:03.287Z,48.22
2022-11-04T06:42:27.661Z,48.19
2022-11-04T06:48:52.050Z,48.13
2022-11-04T06:55:16.355Z,48.16
2022-11-04T07:01:33.873Z,48.18
2022-11-04T07:07:56.880Z,48.31
2022-11-04T07:14:21.219Z,48.32
2022-11-04T07:20:45.715Z,48.24
2022-11-04T07:27:10.128Z,48.03
2022-11-04T07:33:34.449Z,48.32
2022-11-04T07:39:57.529Z,48.42
2022-11-04T07:46:15.671Z,48.42
2022-11-04T07:52:40.149Z,48.28
2022-11-04T07:59:04.518Z,48.21
2022-11-04T08:05:28.941Z,48.16
2022-11-04T08:11:56.222Z,48.42
2022-11-04T08:18:12.925Z,48.31
2022-11-04T08:24:37.362Z,48.26
2022-11-04T08:31:01.776Z,48.52
2022-11-04T08:37:29.053Z,48.34
2022-11-04T08:43:53.602Z,48.22
2022-11-04T08:50:17.967Z,48.53
2022-11-04T08:56:42.407Z,48.27
2022-11-04T09:03:06.991Z,48.57
2022-11-04T09:09:31.514Z,48.61
2022-11-04T09:15:55.937Z,48.59
2022-11-04T09:22:20.373Z,48.56
2022-11-04T09:28:44.801Z,48.42
2022-11-04T09:35:09.290Z,48.43
2022-11-04T09:41:33.805Z,48.43
2022-11-04T09:47:58.412Z,48.34
2022-11-04T09:54:21.928Z,48.18
2022-11-04T10:00:46.447Z,48.09
2022-11-04T10:07:16.571Z,47.53
2022-11-04T10:13:49.707Z,47.26
2022-11-04T10:20:29.487Z,47.29
2022-11-04T10:27:01.009Z,47.12
2022-11-04T10:33:39.832Z,46.62
2022-11-04T10:40:04.249Z,46.47
2022-11-04T10:46:28.672Z,46.29
2022-11-04T10:52:53.156Z,46.07
2022-11-04T10:59:20.197Z,46.05
2022-11-04T11:05:54.379Z,45.95
2022-11-04T11:12:49.342Z,45.76
2022-11-04T11:19:09.416Z,45.61
2022-11-04T11:25:33.890Z,45.68
2022-11-04T11:31:58.245Z,45.72
2022-11-04T11:38:22.731Z,45.62
2022-11-04T11:44:47.152Z,45.66
2022-11-04T11:51:14.422Z,45.69
2022-11-04T11:57:39.362Z,45.79
2022-11-04T12:10:57.243Z,45.68
2022-11-04T12:17:21.566Z,45.59
2022-11-04T12:23:45.877Z,45.69
2022-11-04T12:30:16.114Z,45.61
2022-11-04T12:36:52.124Z,45.77
2022-11-04T12:43:23.971Z,45.85
2022-11-04T12:49:56.907Z,45.89
2022-11-04T12:56:39.245Z,46.10
2022-11-04T13:03:03.555Z,46.24
2022-11-04T13:09:40.232Z,46.23
2022-11-04T13:16:04.671Z,46.29
2022-11-04T13:22:28.970Z,46.19
2022-11-04T13:28:53.231Z,46.32
2022-11-04T13:35:26.429Z,46.28
2022-11-04T13:41:54.053Z,46.63
2022-11-04T13:48:30.632Z,46.55
2022-11-04T13:55:06.908Z,46.81
2022-11-04T14:01:49.396Z,46.66
2022-11-04T14:08:07.375Z,46.94
2022-11-04T14:14:31.914Z,46.75
2022-11-04T14:20:47.017Z,47.05
2022-11-04T14:27:16.702Z,47.03
2022-11-04T14:33:42.044Z,47.11
2022-11-04T14:40:09.335Z,47.10
2022-11-04T14:46:26.936Z,47.16
2022-11-04T14:53:00.150Z,47.20
2022-11-04T14:59:36.628Z,47.48
2022-11-04T15:06:06.484Z,47.42
2022-11-04T15:12:29.453Z,47.59
2022-11-04T15:18:56.477Z,47.77
2022-11-04T15:25:20.818Z,47.77
2022-11-04T15:31:47.826Z,47.77
2022-11-04T15:38:12.284Z,47.88
2022-11-04T15:44:36.631Z,48.01
2022-11-04T15:51:03.885Z,48.21
2022-11-04T15:57:28.309Z,48.05
2022-11-04T16:03:52.632Z,48.11
2022-11-04T16:10:28.849Z,48.02
2022-11-04T16:16:58.867Z,48.36
2022-11-04T16:23:38.354Z,48.14
2022-11-04T16:30:02.833Z,48.32
2022-11-04T16:36:31.079Z,48.41
2022-11-04T16:42:58.635Z,48.58
2022-11-04T16:49:22.604Z,48.35
2022-11-04T16:55:47.143Z,48.62
2022-11-04T17:02:11.542Z,48.63
2022-11-04T17:08:38.903Z,48.66
2022-11-04T17:15:03.141Z,48.64
2022-11-04T17:21:30.551Z,48.68
2022-11-04T17:27:50.070Z,48.75
2022-11-04T17:34:17.209Z,48.83
2022-11-04T17:40:41.522Z,48.61
2022-11-04T17:47:06.916Z,48.72
2022-11-04T17:53:31.201Z,49.06
2022-11-04T17:59:55.581Z,49.03
2022-11-04T18:06:19.982Z,48.80
2022-11-04T18:12:59.565Z,48.90
2022-11-04T18:19:23.942Z,49.12
2022-11-04T18:25:50.770Z,49.18
2022-11-04T18:32:18.256Z,49.07
2022-11-04T18:38:42.865Z,49.16
2022-11-04T18:45:07.150Z,49.07
2022-11-04T18:51:31.444Z,49.17
2022-11-04T18:57:55.804Z,48.93
2022-11-04T19:04:20.228Z,48.59
2022-11-04T19:11:00.093Z,48.54
2022-11-04T19:17:25.283Z,48.22
2022-11-04T19:23:49.604Z,47.93
2022-11-04T19:30:14.037Z,47.83
2022-11-04T19:36:38.645Z,47.61
2022-11-04T19:43:01.338Z,47.48
2022-11-04T19:49:25.704Z,47.25
2022-11-04T19:55:50.014Z,47.13
2022-11-04T20:02:14.492Z,46.96
2022-11-04T20:08:38.961Z,46.89
2022-11-04T20:15:03.273Z,46.82
2022-11-04T20:21:27.617Z,46.89
2022-11-04T20:27:52.034Z,46.71
2022-11-04T20:34:16.392Z,46.56
2022-11-04T20:40:41.156Z,46.56
2022-11-04T20:47:05.523Z,46.56
2022-11-04T20:53:29.815Z,46.48
2022-11-04T20:59:54.159Z,46.40
2022-11-04T21:06:18.564Z,46.37
2022-11-04T21:12:42.988Z,46.41
2022-11-04T21:19:07.851Z,46.44
2022-11-04T21:25:32.636Z,46.43
2022-11-04T21:31:56.935Z,46.44
2022-11-04T21:38:21.344Z,46.56
2022-11-04T21:44:45.633Z,46.42
2022-11-04T21:51:09.980Z,46.47
2022-11-04T21:57:34.300Z,46.57
2022-11-04T22:03:58.293Z,46.70
2022-11-04T22:10:15.299Z,46.66
2022-11-04T22:16:39.773Z,46.95
2022-11-04T22:23:04.243Z,46.71
2022-11-04T22:29:28.544Z,46.83
2022-11-04T22:35:52.843Z,46.80
2022-11-04T22:42:17.204Z,46.98
2022-11-04T22:48:41.514Z,47.00
2022-11-04T22:55:05.893Z,47.20
2022-11-04T23:01:30.830Z,47.07
2022-11-04T23:07:55.350Z,47.17
2022-11-04T23:14:20.863Z,47.38
2022-11-04T23:20:45.803Z,47.28
2022-11-04T23:27:10.194Z,47.39
2022-11-04T23:33:37.412Z,47.46
2022-11-04T23:40:01.717Z,47.53
2022-11-04T23:46:24.769Z,47.62
2022-11-04T23:52:47.684Z,47.49
2022-11-04T23:59:10.523Z,47.56
